Time;durP1;ratioP1;P1;durP2;ratioP2;P2;SDS_P1;SDS_P2;PMS_P1;PMS_P2;Temp;Humidity;BMP_temperature;BMP_pressure;BME280_temperature;BME280_humidity;BME280_pressure;Samples;Min_cycle;Max_cycle;Signal;HPM_P1;HPM_P2
2021/03/29 00:00:26;;;;;;;26.88;13.63;;;;;;;7.36;49.68;101301.38;5083317;28;20071;-71
2021/03/29 00:02:54;;;;;;;32.90;15.48;;;;;;;7.40;49.64;101295.09;5083578;28;20116;-70
2021/03/29 00:05:22;;;;;;;26.05;14.82;;;;;;;7.41;49.63;101296.78;5083287;28;20077;-71
2021/03/29 00:07:52;;;;;;;21.15;13.43;;;;;;;7.43;49.53;101300.19;5082808;28;20467;-70
2021/03/29 00:10:19;;;;;;;30.27;14.73;;;;;;;7.45;49.50;101300.13;5083039;28;20212;-71
2021/03/29 00:12:48;;;;;;;26.65;15.73;;;;;;;7.45;49.81;101301.00;5082898;28;20044;-71
2021/03/29 00:15:18;;;;;;;31.42;13.85;;;;;;;7.41;49.57;101307.28;5082927;28;20186;-71
2021/03/29 00:17:46;;;;;;;32.80;17.85;;;;;;;7.42;49.67;101302.91;5084174;28;20054;-71
2021/03/29 00:20:14;;;;;;;21.00;14.40;;;;;;;7.40;49.73;101296.84;5083288;28;20645;-72
2021/03/29 00:22:42;;;;;;;25.38;15.07;;;;;;;7.40;49.63;101300.34;5083975;28;20105;-69
2021/03/29 00:25:11;;;;;;;30.63;15.98;;;;;;;7.40;49.68;101300.34;5083693;28;20108;-72
2021/03/29 00:27:37;;;;;;;26.10;15.30;;;;;;;7.41;49.62;101294.16;5082870;28;20393;-71
2021/03/29 00:30:07;;;;;;;27.48;14.88;;;;;;;7.42;49.65;101298.50;5084116;28;20044;-70
2021/03/29 00:32:35;;;;;;;29.90;14.68;;;;;;;7.44;49.55;101298.44;5084270;28;20067;-71
2021/03/29 00:35:02;;;;;;;31.05;16.08;;;;;;;7.46;49.48;101305.31;5083474;28;20476;-72
2021/03/29 00:37:29;;;;;;;26.80;14.70;;;;;;;7.46;49.49;101300.06;5082607;28;20510;-74
2021/03/29 00:39:57;;;;;;;31.15;14.20;;;;;;;7.49;49.39;101293.84;5083243;28;20051;-71
2021/03/29 00:42:25;;;;;;;27.48;16.02;;;;;;;7.52;49.34;101291.06;5083348;28;20112;-72
2021/03/29 00:44:51;;;;;;;32.22;15.57;;;;;;;7.55;49.38;101304.09;5083239;28;20102;-71
2021/03/29 00:47:18;;;;;;;30.60;15.70;;;;;;;7.58;49.27;101306.59;5082605;28;20075;-70
2021/03/29 00:49:44;;;;;;;28.95;15.95;;;;;;;7.63;49.30;101304.63;5083178;28;20040;-72
2021/03/29 00:52:12;;;;;;;33.03;15.38;;;;;;;7.68;49.21;101300.94;5083421;28;20530;-70
2021/03/29 00:54:40;;;;;;;25.63;14.82;;;;;;;7.68;49.24;101300.94;5082015;28;20055;-72
2021/03/29 00:57:07;;;;;;;23.40;14.82;;;;;;;7.70;49.11;101299.94;5083365;28;20040;-70
2021/03/29 00:59:34;;;;;;;25.55;15.85;;;;;;;7.71;49.25;101296.38;5083303;28;20048;-70
2021/03/29 01:02:00;;;;;;;22.40;13.85;;;;;;;7.72;49.11;101292.81;5083305;28;20431;-73
2021/03/29 01:04:27;;;;;;;27.58;13.93;;;;;;;7.75;49.05;101294.47;5083531;28;20103;-70
2021/03/29 01:06:54;;;;;;;26.98;15.35;;;;;;;7.73;49.06;101294.53;5083069;28;20052;-69
2021/03/29 01:09:25;;;;;;;28.38;15.27;;;;;;;7.68;49.23;101299.16;5083513;28;20048;-69
2021/03/29 01:11:53;;;;;;;26.08;14.02;;;;;;;7.66;49.20;101298.34;5082510;28;20048;-70
2021/03/29 01:14:24;;;;;;;25.65;14.70;;;;;;;7.65;49.28;101301.91;5083126;28;20048;-72
2021/03/29 01:16:55;;;;;;;20.95;12.43;;;;;;;7.63;49.31;101293.22;5082223;28;20052;-72
2021/03/29 01:19:34;;;;;;;31.60;15.63;;;;;;;7.63;49.37;101296.72;5081634;28;20048;-71
2021/03/29 01:22:04;;;;;;;28.58;14.18;;;;;;;7.63;49.29;101282.72;5081988;28;20056;-70
2021/03/29 01:24:48;;;;;;;25.80;15.20;;;;;;;7.63;49.33;101286.22;5081091;28;20557;-71
2021/03/29 01:27:20;;;;;;;23.15;12.88;;;;;;;7.63;49.29;101293.22;5082420;28;20070;-71
2021/03/29 01:29:47;;;;;;;24.88;13.52;;;;;;;7.61;49.37;101289.81;5082737;28;20040;-74
2021/03/29 01:32:15;;;;;;;25.42;13.40;;;;;;;7.58;49.36;101289.94;5081868;28;20059;-72
2021/03/29 01:34:42;;;;;;;30.25;15.77;;;;;;;7.53;49.38;101287.53;5082159;28;20043;-70
2021/03/29 01:37:11;;;;;;;21.83;14.27;;;;;;;7.52;49.59;101284.97;5082488;28;20052;-72
2021/03/29 01:39:39;;;;;;;23.08;13.98;;;;;;;7.49;49.66;101279.81;5063415;28;20051;-70
2021/03/29 01:42:06;;;;;;;25.33;14.25;;;;;;;7.47;49.67;101283.38;5082199;28;20043;-70
2021/03/29 01:44:34;;;;;;;27.23;14.25;;;;;;;7.46;49.58;101278.19;5029778;28;20048;-70
2021/03/29 01:47:01;;;;;;;26.38;14.10;;;;;;;7.43;49.76;101284.41;5082349;28;20113;-73
2021/03/29 01:49:28;;;;;;;24.85;14.90;;;;;;;7.40;49.79;101291.59;5081823;28;20044;-70
2021/03/29 01:51:58;;;;;;;24.15;14.50;;;;;;;7.36;49.80;101282.97;5082708;28;20620;-75
2021/03/29 01:54:25;;;;;;;23.60;12.63;;;;;;;7.39;50.01;101289.88;5080359;28;20075;-70
2021/03/29 01:56:52;;;;;;;26.40;15.65;;;;;;;7.38;49.81;101281.16;5081456;28;20088;-71
2021/03/29 01:59:18;;;;;;;27.63;15.07;;;;;;;7.40;49.84;101288.94;5082138;28;20036;-71
2021/03/29 02:01:45;;;;;;;22.80;13.10;;;;;;;7.44;49.83;101287.94;5081138;28;20117;-70
2021/03/29 02:04:12;;;;;;;24.42;14.35;;;;;;;7.42;49.75;101287.16;5081562;28;20052;-68
2021/03/29 02:06:39;;;;;;;24.98;17.65;;;;;;;7.37;49.93;101287.31;5081914;28;20066;-72
2021/03/29 02:09:07;;;;;;;24.25;14.77;;;;;;;7.39;50.02;101289.88;5081940;28;20051;-72
2021/03/29 02:11:35;;;;;;;25.15;13.75;;;;;;;7.41;50.12;101288.88;5081823;28;20602;-72
2021/03/29 02:14:02;;;;;;;27.25;13.82;;;;;;;7.46;49.87;101281.66;5082167;28;20149;-71
2021/03/29 02:16:30;;;;;;;26.20;14.75;;;;;;;7.51;49.86;101283.22;5082242;28;20074;-72
2021/03/29 02:18:59;;;;;;;20.73;13.48;;;;;;;7.55;49.76;101290.94;5082473;28;20128;-73
2021/03/29 02:21:31;;;;;;;29.58;15.63;;;;;;;7.60;49.76;101288.97;5082304;28;20097;-71
2021/03/29 02:23:59;;;;;;;25.08;13.27;;;;;;;7.65;49.73;101296.63;5081926;28;20048;-70
2021/03/29 02:26:27;;;;;;;28.80;13.52;;;;;;;7.70;49.64;101291.19;5080017;28;20055;-71
2021/03/29 02:28:56;;;;;;;25.48;13.40;;;;;;;7.77;49.51;101297.88;5081802;28;20048;-71
2021/03/29 02:31:25;;;;;;;21.83;13.85;;;;;;;7.80;49.48;101297.75;5081701;28;20060;-70
2021/03/29 02:33:52;;;;;;;25.33;13.07;;;;;;;7.80;49.62;101300.41;5081064;28;20050;-71
2021/03/29 02:36:20;;;;;;;21.88;12.98;;;;;;;7.85;49.47;101304.53;5081587;28;20044;-70
2021/03/29 02:38:47;;;;;;;31.45;14.35;;;;;;;7.90;49.54;101300.81;5082078;28;20047;-71
2021/03/29 02:41:14;;;;;;;37.42;16.33;;;;;;;7.94;49.53;101302.38;5081369;28;20056;-74
2021/03/29 02:43:42;;;;;;;21.45;13.43;;;;;;;7.93;49.54;101305.97;5080883;28;20518;-70
2021/03/29 02:46:09;;;;;;;29.55;14.30;;;;;;;7.95;49.69;101306.75;5081645;28;20215;-70
2021/03/29 02:48:39;;;;;;;24.98;16.40;;;;;;;7.89;49.86;101305.25;5082010;28;20048;-72
2021/03/29 02:51:08;;;;;;;30.40;15.45;;;;;;;7.85;50.11;101307.16;5081590;28;20129;-71
2021/03/29 02:53:37;;;;;;;28.10;13.77;;;;;;;7.85;50.26;101307.16;5081648;28;20054;-71
2021/03/29 02:56:07;;;;;;;27.45;17.08;;;;;;;7.90;50.39;101303.47;5080363;28;20059;-72
2021/03/29 02:58:38;;;;;;;25.98;14.50;;;;;;;7.91;50.51;101302.56;5080562;28;20341;-72
2021/03/29 03:01:08;;;;;;;30.15;16.20;;;;;;;7.91;50.78;101299.91;5082419;28;20476;-72
2021/03/29 03:03:35;;;;;;;25.02;14.73;;;;;;;7.88;50.96;101303.53;5081588;28;20048;-71
2021/03/29 03:06:03;;;;;;;27.75;14.90;;;;;;;7.84;51.19;101297.53;5080740;28;20044;-71
2021/03/29 03:08:29;;;;;;;21.67;13.55;;;;;;;7.81;51.51;101300.34;5082935;28;20044;-75
2021/03/29 03:10:56;;;;;;;23.67;14.35;;;;;;;7.78;51.68;101303.09;5081440;28;20066;-74
2021/03/29 03:13:23;;;;;;;25.63;12.82;;;;;;;7.76;52.01;101302.31;5080551;28;20492;-71
2021/03/29 03:15:50;;;;;;;26.05;13.63;;;;;;;7.75;52.22;101300.59;5081688;28;20131;-71
2021/03/29 03:18:17;;;;;;;23.88;14.57;;;;;;;7.74;52.44;101298.91;5081707;28;20496;-74
2021/03/29 03:20:43;;;;;;;22.48;15.27;;;;;;;7.69;52.57;101297.34;5084746;28;20060;-71
2021/03/29 03:23:16;;;;;;;21.95;13.77;;;;;;;7.70;52.90;101296.44;5085679;28;20541;-71
2021/03/29 03:25:45;;;;;;;20.33;13.30;;;;;;;7.78;53.14;101299.63;5082691;28;20098;-72
2021/03/29 03:28:13;;;;;;;19.02;12.57;;;;;;;7.84;53.09;101301.97;5084689;28;20601;-72
2021/03/29 03:30:42;;;;;;;18.45;11.68;;;;;;;7.87;53.16;101296.56;5084457;28;20257;-70
2021/03/29 03:33:12;;;;;;;24.50;11.80;;;;;;;7.91;53.25;101298.13;5084376;28;20113;-71
2021/03/29 03:35:40;;;;;;;19.00;12.23;;;;;;;7.94;53.35;101302.38;5084679;28;20048;-69
2021/03/29 03:38:11;;;;;;;21.65;11.30;;;;;;;7.94;53.75;101298.00;5084958;28;20145;-71
2021/03/29 03:40:39;;;;;;;21.98;12.55;;;;;;;7.95;53.90;101288.31;5083924;28;20720;-73
2021/03/29 03:43:07;;;;;;;24.00;12.77;;;;;;;7.95;53.79;101285.69;5084919;28;20051;-70
2021/03/29 03:45:40;;;;;;;21.58;12.55;;;;;;;7.96;54.23;101283.00;5084876;28;20062;-71
2021/03/29 03:48:08;;;;;;;19.10;11.55;;;;;;;7.98;54.30;101280.31;5082089;28;20048;-71
2021/03/29 03:50:35;;;;;;;19.33;10.80;;;;;;;8.00;54.43;101283.72;5084413;28;20048;-73
2021/03/29 03:53:02;;;;;;;16.25;11.48;;;;;;;8.02;54.53;101284.50;5084331;28;20109;-70
2021/03/29 03:55:29;;;;;;;19.65;11.38;;;;;;;8.07;54.71;101279.00;5081865;28;20048;-73
2021/03/29 03:57:56;;;;;;;21.75;11.48;;;;;;;8.09;54.85;101280.66;5084217;28;20484;-70
2021/03/29 04:00:25;;;;;;;17.50;10.18;;;;;;;8.11;54.87;101289.34;5084265;28;20044;-70
2021/03/29 04:02:53;;;;;;;19.20;9.30;;;;;;;8.13;54.96;101282.22;5083635;28;20044;-69
2021/03/29 04:05:20;;;;;;;21.48;10.55;;;;;;;8.11;55.09;101294.59;5084939;28;20453;-73
2021/03/29 04:07:49;;;;;;;16.88;10.68;;;;;;;8.20;54.89;101283.66;5084424;28;20044;-70
2021/03/29 04:10:18;;;;;;;19.85;10.63;;;;;;;8.25;54.84;101288.72;5083488;28;20117;-73
2021/03/29 04:12:51;;;;;;;22.48;10.60;;;;;;;8.31;54.81;101291.06;5084990;28;20121;-72
2021/03/29 04:15:18;;;;;;;15.10;9.93;;;;;;;8.38;54.73;101287.22;5084371;28;20603;-70
2021/03/29 04:17:45;;;;;;;18.48;11.25;;;;;;;8.39;54.89;101298.59;5083592;28;20059;-67
2021/03/29 04:20:14;;;;;;;19.73;13.02;;;;;;;8.46;54.74;101302.66;5083760;28;20060;-71
2021/03/29 04:22:41;;;;;;;18.80;11.75;;;;;;;8.47;54.82;101307.03;5084260;28;20098;-73
2021/03/29 04:25:11;;;;;;;20.70;12.30;;;;;;;8.49;54.78;101304.31;5083261;28;20419;-74
2021/03/29 04:27:38;;;;;;;20.42;11.73;;;;;;;8.51;54.78;101316.47;5085604;28;20067;-72
2021/03/29 04:30:06;;;;;;;26.52;15.20;;;;;;;8.53;54.82;101317.25;5083830;28;20044;-72
2021/03/29 04:32:32;;;;;;;30.35;17.42;;;;;;;8.57;54.69;101312.69;5083597;28;20044;-71
2021/03/29 04:34:58;;;;;;;28.30;16.70;;;;;;;8.60;54.79;101310.78;5084492;28;20101;-69
2021/03/29 04:37:26;;;;;;;38.10;17.48;;;;;;;8.67;54.72;101307.88;5083486;28;20051;-72
2021/03/29 04:39:53;;;;;;;23.60;13.30;;;;;;;8.70;54.53;101302.47;5084379;28;20052;-72
2021/03/29 04:42:20;;;;;;;22.90;11.98;;;;;;;8.65;54.58;101315.00;5084100;28;20048;-73
2021/03/29 04:44:47;;;;;;;20.27;10.98;;;;;;;8.59;54.80;101313.50;5083250;28;20044;-69
2021/03/29 04:47:14;;;;;;;17.42;10.65;;;;;;;8.61;54.76;101304.59;5083976;28;20048;-74
2021/03/29 04:49:41;;;;;;;19.58;12.00;;;;;;;8.63;54.57;101296.63;5083230;28;20044;-71
2021/03/29 04:52:08;;;;;;;19.00;11.32;;;;;;;8.67;54.62;101300.81;5082649;28;20074;-72
2021/03/29 04:54:35;;;;;;;22.75;12.27;;;;;;;8.69;54.58;101298.94;5080855;28;20048;-75
2021/03/29 04:57:02;;;;;;;22.35;10.63;;;;;;;8.70;54.51;101305.94;5084491;28;20055;-73
2021/03/29 04:59:28;;;;;;;20.10;11.65;;;;;;;8.73;54.60;101305.81;5082689;28;20068;-71
2021/03/29 05:01:55;;;;;;;19.92;13.30;;;;;;;8.72;54.57;101313.78;5082723;28;20044;-73
2021/03/29 05:04:21;;;;;;;17.92;11.32;;;;;;;8.76;54.51;101312.69;5081179;28;20062;-70
2021/03/29 05:06:47;;;;;;;20.60;10.90;;;;;;;8.79;54.45;101312.56;5083141;28;20044;-71
2021/03/29 05:09:14;;;;;;;19.10;10.82;;;;;;;8.84;54.44;101315.81;5080623;28;20044;-70
2021/03/29 05:11:48;;;;;;;24.17;12.40;;;;;;;8.89;54.45;101313.78;5082926;28;20143;-69
2021/03/29 05:14:15;;;;;;;21.25;11.20;;;;;;;8.87;54.44;101307.75;5082183;28;20112;-72
2021/03/29 05:16:41;;;;;;;16.38;9.98;;;;;;;8.88;54.47;101312.09;5081582;28;20113;-69
2021/03/29 05:19:08;;;;;;;23.40;11.68;;;;;;;8.87;54.65;101310.38;5081782;28;20040;-71
2021/03/29 05:21:34;;;;;;;19.98;10.65;;;;;;;8.87;54.66;101305.13;5081760;28;20044;-71
2021/03/29 05:24:02;;;;;;;20.77;11.52;;;;;;;8.89;54.62;101303.25;5080964;28;20056;-70
2021/03/29 05:26:28;;;;;;;26.73;12.55;;;;;;;8.96;54.55;101306.44;5079633;28;20058;-72
2021/03/29 05:28:55;;;;;;;18.80;11.55;;;;;;;9.02;54.43;101313.19;5082222;28;20044;-73
2021/03/29 05:31:22;;;;;;;17.83;11.13;;;;;;;9.06;54.46;101314.78;5080482;28;20052;-71
2021/03/29 05:33:48;;;;;;;19.58;11.95;;;;;;;9.04;54.42;101316.59;5079855;28;20097;-72
2021/03/29 05:36:16;;;;;;;27.65;12.40;;;;;;;9.04;54.48;101316.59;5080023;28;20048;-72
2021/03/29 05:38:44;;;;;;;17.77;12.35;;;;;;;9.07;54.50;101324.38;5078643;28;20074;-73
2021/03/29 05:41:11;;;;;;;22.65;13.80;;;;;;;9.05;54.67;101320.97;5077835;28;20702;-72
2021/03/29 05:43:39;;;;;;;17.67;11.27;;;;;;;9.06;54.85;101320.06;5077958;28;20627;-72
2021/03/29 05:46:06;;;;;;;28.27;14.40;;;;;;;9.06;54.82;101320.06;5076269;28;20063;-75
2021/03/29 05:48:33;;;;;;;24.00;13.30;;;;;;;9.07;54.83;101313.84;5075060;28;20613;-71
2021/03/29 05:51:01;;;;;;;24.60;14.55;;;;;;;9.08;54.58;101323.47;5075463;28;20040;-72
2021/03/29 05:53:28;;;;;;;25.23;12.43;;;;;;;9.07;54.76;101308.56;5054324;28;20049;-71
2021/03/29 05:55:55;;;;;;;21.60;13.80;;;;;;;9.12;54.77;101310.03;5067428;28;20060;-70
2021/03/29 06:01:09;;;;;;;24.95;13.75;;;;;;;9.17;54.79;101313.31;5009205;28;20152;-71
2021/03/29 06:03:37;;;;;;;22.55;12.23;;;;;;;9.25;54.38;101310.28;5007615;28;20117;-73
2021/03/29 06:06:17;;;;;;;21.52;12.65;;;;;;;9.35;54.59;101306.25;4999368;28;20038;-72
2021/03/29 06:08:45;;;;;;;16.67;10.15;;;;;;;9.50;54.12;101301.13;5011378;28;20056;-73
2021/03/29 06:11:23;;;;;;;27.65;13.20;;;;;;;9.57;54.12;101303.38;5011167;28;20049;-72
2021/03/29 06:14:14;;;;;;;27.75;12.88;;;;;;;9.73;53.94;101313.13;5011876;28;20469;-72
2021/03/29 06:17:01;;;;;;;22.40;11.02;;;;;;;9.92;53.46;101318.28;5011497;28;20398;-72
2021/03/29 06:19:52;;;;;;;26.15;12.13;;;;;;;10.02;53.42;101321.31;5014498;28;20045;-72
2021/03/29 06:22:22;;;;;;;18.33;10.55;;;;;;;10.09;53.04;101322.69;5013455;28;20049;-74
2021/03/29 06:25:05;;;;;;;20.55;11.65;;;;;;;10.14;53.02;101321.50;5011941;28;20050;-74
2021/03/29 06:27:33;;;;;;;22.58;12.35;;;;;;;10.38;52.77;101321.16;5012520;28;20081;-76
2021/03/29 06:30:19;;;;;;;19.15;12.05;;;;;;;10.46;52.52;101326.88;5010820;28;20045;-73
2021/03/29 06:32:55;;;;;;;21.00;12.13;;;;;;;10.42;52.64;101327.97;5010090;28;20504;-73
2021/03/29 06:35:23;;;;;;;22.13;13.13;;;;;;;10.33;52.80;101336.38;5010805;28;20509;-73
2021/03/29 06:37:50;;;;;;;19.85;11.55;;;;;;;10.27;52.97;101332.25;5035321;28;20052;-72
2021/03/29 06:40:17;;;;;;;21.60;13.00;;;;;;;10.23;53.12;101335.16;5075971;28;20159;-73
2021/03/29 06:42:43;;;;;;;20.85;12.57;;;;;;;10.18;53.09;101330.13;5071415;28;20979;-73
2021/03/29 06:45:12;;;;;;;30.75;14.70;;;;;;;10.12;53.38;101336.59;5070916;28;20040;-73
2021/03/29 06:47:39;;;;;;;26.63;13.85;;;;;;;10.09;53.42;101333.25;5072206;28;20105;-72
2021/03/29 06:50:07;;;;;;;26.67;14.73;;;;;;;10.07;53.40;101338.59;5071608;28;20050;-77
2021/03/29 06:52:35;;;;;;;29.17;16.15;;;;;;;10.10;53.51;101340.22;5071629;28;20054;-76
2021/03/29 06:55:26;;;;;;;21.33;13.13;;;;;;;10.21;53.30;101337.88;5072797;28;20059;-72
2021/03/29 06:58:00;;;;;;;21.80;13.25;;;;;;;10.33;52.96;101334.63;5004395;28;20046;-73
2021/03/29 07:00:32;;;;;;;28.58;13.00;;;;;;;10.48;52.82;101329.44;5006182;28;20045;-71
2021/03/29 07:03:01;;;;;;;26.38;14.02;;;;;;;10.69;52.51;101333.50;5013300;28;20050;-73
2021/03/29 07:05:30;;;;;;;19.13;13.55;;;;;;;10.90;52.08;101326.16;5006543;28;20578;-73
2021/03/29 07:07:57;;;;;;;25.42;15.35;;;;;;;10.93;51.94;101329.56;5006879;28;20045;-75
2021/03/29 07:10:24;;;;;;;19.55;13.20;;;;;;;10.95;52.11;101333.84;5006040;28;20648;-72
2021/03/29 07:12:53;;;;;;;27.83;14.18;;;;;;;11.01;52.04;101327.34;5008278;28;20045;-73
2021/03/29 07:15:20;;;;;;;22.88;13.15;;;;;;;11.10;51.97;101324.19;5004706;28;20046;-72
2021/03/29 07:17:47;;;;;;;22.05;13.88;;;;;;;11.23;51.77;101325.16;5003851;28;20073;-72
2021/03/29 07:20:21;;;;;;;18.75;13.82;;;;;;;11.27;51.98;101336.41;5007312;28;20417;-72
2021/03/29 07:22:49;;;;;;;23.73;14.98;;;;;;;11.24;51.87;101328.69;5006249;28;20042;-72
2021/03/29 07:25:16;;;;;;;18.75;12.43;;;;;;;11.26;52.06;101335.56;5002805;28;20045;-72
2021/03/29 07:27:45;;;;;;;22.55;14.13;;;;;;;11.35;52.04;101328.06;5006370;28;20135;-72
2021/03/29 07:30:15;;;;;;;22.48;12.93;;;;;;;11.34;52.31;101332.47;5004658;28;20042;-75
2021/03/29 07:32:52;;;;;;;23.55;14.98;;;;;;;11.35;52.12;101336.00;5005290;28;20099;-72
2021/03/29 07:35:19;;;;;;;22.83;12.85;;;;;;;11.27;52.36;101344.34;5058010;28;20667;-72
2021/03/29 07:37:56;;;;;;;18.13;12.82;;;;;;;11.19;52.58;101339.50;5066794;28;20036;-72
2021/03/29 07:40:48;;;;;;;22.08;13.40;;;;;;;11.21;52.67;101332.34;5064362;28;20829;-73
2021/03/29 07:43:17;;;;;;;26.92;14.77;;;;;;;11.35;52.13;101334.19;5064425;28;20496;-73
2021/03/29 07:45:52;;;;;;;27.55;14.32;;;;;;;11.59;51.90;101334.53;5063761;28;20049;-72
2021/03/29 07:48:39;;;;;;;19.38;13.45;;;;;;;11.99;51.17;101329.53;5062806;28;20036;-72
2021/03/29 07:51:09;;;;;;;24.65;13.88;;;;;;;12.12;50.83;101331.41;5063688;28;20044;-73
2021/03/29 07:53:48;;;;;;;24.50;15.88;;;;;;;12.07;50.97;101337.00;5063045;28;20553;-73
2021/03/29 07:56:41;;;;;;;24.60;14.20;;;;;;;12.12;50.85;101326.09;5053507;28;20829;-75
2021/03/29 07:59:08;;;;;;;24.73;14.38;;;;;;;12.21;50.67;101336.16;5056209;28;20079;-73
2021/03/29 08:01:59;;;;;;;21.48;15.27;;;;;;;12.31;50.45;101325.81;5056360;28;20055;-75
2021/03/29 08:05:03;;;;;;;25.02;14.85;;;;;;;12.54;50.25;101332.31;5053389;28;20041;-73
2021/03/29 08:07:40;;;;;;;23.10;13.90;;;;;;;12.63;49.89;101331.72;5057403;28;20393;-71
2021/03/29 08:10:09;;;;;;;26.73;14.25;;;;;;;12.66;49.80;101320.94;5075058;28;20052;-72
2021/03/29 08:12:36;;;;;;;22.25;15.15;;;;;;;12.99;49.23;101317.03;5068524;28;20121;-71
2021/03/29 08:15:04;;;;;;;23.67;15.73;;;;;;;13.22;48.75;101315.53;5072118;28;20055;-70
2021/03/29 08:17:47;;;;;;;25.02;17.75;;;;;;;13.42;48.31;101314.22;5065928;28;20074;-72
2021/03/29 08:20:20;;;;;;;27.98;17.27;;;;;;;13.65;47.81;101317.09;5065771;28;20070;-71
2021/03/29 08:23:24;;;;;;;29.70;17.48;;;;;;;14.06;47.41;101316.91;5067835;28;20048;-71
2021/03/29 08:26:17;;;;;;;31.52;18.23;;;;;;;14.32;46.83;101312.38;5061165;28;20043;-74
2021/03/29 08:29:31;;;;;;;25.92;17.50;;;;;;;14.44;46.60;101308.00;5073939;28;20090;-73
2021/03/29 08:32:13;;;;;;;27.00;17.27;;;;;;;14.43;46.56;101306.28;4953200;28;20050;-73
2021/03/29 08:34:46;;;;;;;25.75;14.88;;;;;;;14.52;46.39;101308.28;4957889;28;20085;-73
2021/03/29 08:37:15;;;;;;;22.88;14.93;;;;;;;14.56;46.18;101306.25;4971473;28;20050;-73
2021/03/29 08:39:45;;;;;;;25.20;16.10;;;;;;;14.61;46.09;101314.78;4972168;28;20055;-72
2021/03/29 08:42:15;;;;;;;22.02;14.10;;;;;;;14.75;45.72;101310.25;4973614;28;20445;-73
2021/03/29 08:44:43;;;;;;;22.60;13.40;;;;;;;14.74;45.58;101308.56;4975435;28;20724;-75
2021/03/29 08:47:11;;;;;;;25.52;14.32;;;;;;;14.64;46.02;101306.59;4972180;28;20047;-74
2021/03/29 08:49:37;;;;;;;26.90;14.70;;;;;;;14.72;45.71;101308.69;4971213;28;20050;-74
2021/03/29 08:52:05;;;;;;;26.52;15.50;;;;;;;14.75;45.79;101311.13;4973058;28;20046;-75
2021/03/29 08:54:32;;;;;;;27.95;17.23;;;;;;;14.77;45.73;101313.69;4969575;28;20050;-73
2021/03/29 08:57:03;;;;;;;22.42;14.98;;;;;;;14.91;45.54;101309.03;4972552;28;20472;-75
2021/03/29 08:59:31;;;;;;;24.35;14.70;;;;;;;15.03;45.18;101304.59;4975051;28;20204;-74
2021/03/29 09:01:58;;;;;;;21.85;12.85;;;;;;;15.20;45.08;101310.50;4995158;28;20590;-72
2021/03/29 09:04:25;;;;;;;23.15;14.50;;;;;;;15.29;44.49;101313.31;5073072;28;20790;-74
2021/03/29 09:06:54;;;;;;;23.42;14.82;;;;;;;15.40;44.41;101312.47;5056680;28;20075;-75
2021/03/29 09:09:22;;;;;;;26.63;15.32;;;;;;;15.53;44.33;101311.56;5072398;28;20089;-79
2021/03/29 09:11:50;;;;;;;21.23;14.27;;;;;;;15.63;44.41;101318.72;5066909;28;20102;-74
2021/03/29 09:14:19;;;;;;;24.13;16.15;;;;;;;15.74;44.01;101319.72;5071325;28;20404;-76
2021/03/29 09:16:47;;;;;;;25.27;15.55;;;;;;;15.84;44.01;101326.88;5067544;28;20078;-76
2021/03/29 09:19:16;;;;;;;29.88;16.80;;;;;;;15.97;44.08;101323.25;5068993;28;20108;-76
2021/03/29 09:21:43;;;;;;;22.15;14.57;;;;;;;16.08;43.63;101315.28;5063339;28;20102;-74
2021/03/29 09:24:17;;;;;;;24.70;14.95;;;;;;;16.16;43.55;101323.50;5073260;28;20123;-72
2021/03/29 09:26:44;;;;;;;24.58;15.23;;;;;;;16.23;43.41;101321.22;5060297;28;20124;-73
2021/03/29 09:29:22;;;;;;;19.65;12.07;;;;;;;16.29;43.15;101319.88;5067696;28;20040;-73
2021/03/29 09:31:50;;;;;;;21.45;13.02;;;;;;;16.21;43.21;101324.00;5062069;28;20074;-74
2021/03/29 09:34:19;;;;;;;22.50;12.70;;;;;;;16.09;43.43;101319.63;5065432;28;20037;-77
2021/03/29 09:36:45;;;;;;;23.58;13.52;;;;;;;16.12;43.35;101318.56;5067423;28;20567;-74
2021/03/29 09:39:15;;;;;;;23.80;12.65;;;;;;;16.07;43.35;101321.56;5073781;28;20036;-81
2021/03/29 09:41:50;;;;;;;21.10;12.25;;;;;;;16.14;43.34;101333.44;5066972;28;20488;-75
2021/03/29 09:44:17;;;;;;;21.00;12.13;;;;;;;16.19;42.99;101322.44;5068487;28;20094;-71
2021/03/29 09:46:43;;;;;;;20.25;11.40;;;;;;;16.14;43.04;101327.28;5068517;28;20591;-72
2021/03/29 09:49:14;;;;;;;21.77;12.23;;;;;;;16.12;42.79;101332.72;5074001;28;20048;-74
2021/03/29 09:51:42;;;;;;;21.55;12.18;;;;;;;16.04;43.02;101332.47;5064733;28;20729;-75
2021/03/29 09:54:26;;;;;;;20.30;12.32;;;;;;;16.06;42.92;101335.84;5065870;28;20097;-72
2021/03/29 09:56:53;;;;;;;21.80;11.15;;;;;;;16.05;42.77;101328.84;5061862;28;20372;-73
2021/03/29 09:59:30;;;;;;;21.63;14.05;;;;;;;16.00;42.99;101326.53;5063287;28;20048;-73
2021/03/29 10:01:59;;;;;;;19.60;13.75;;;;;;;15.91;43.14;101327.25;5070577;28;20776;-75
2021/03/29 10:04:27;;;;;;;22.08;13.15;;;;;;;15.83;43.55;101325.19;5062685;28;20037;-76
2021/03/29 10:06:55;;;;;;;21.38;13.02;;;;;;;15.85;43.62;101323.25;5064984;28;20043;-74
2021/03/29 10:09:32;;;;;;;20.65;12.77;;;;;;;15.88;43.64;101321.31;5071150;28;20048;-71
2021/03/29 10:12:00;;;;;;;21.95;12.77;;;;;;;15.85;43.58;101322.41;5072470;28;20724;-72
2021/03/29 10:14:37;;;;;;;24.48;13.82;;;;;;;15.84;43.84;101326.88;5070544;28;20044;-73
2021/03/29 10:17:14;;;;;;;25.08;13.45;;;;;;;15.96;43.80;101321.59;5053699;28;20037;-73
2021/03/29 10:19:43;;;;;;;24.25;12.30;;;;;;;16.18;43.36;101323.41;5065011;28;20495;-73
2021/03/29 10:22:13;;;;;;;20.70;12.80;;;;;;;16.29;43.05;101322.53;5070853;28;20097;-73
2021/03/29 10:24:59;;;;;;;18.15;12.00;;;;;;;16.32;43.22;101330.31;5070964;28;20052;-74
2021/03/29 10:27:36;;;;;;;;;;;;;;;16.53;42.80;101319.72;5074540;28;20044;-73
2021/03/29 10:30:03;;;;;;;20.02;11.57;;;;;;;16.16;43.17;101325.34;5078342;28;19981;-73
2021/03/29 10:32:30;;;;;;;20.10;13.13;;;;;;;16.00;43.62;101325.69;5074169;28;20139;-75
2021/03/29 10:34:57;;;;;;;19.15;11.23;;;;;;;15.85;43.64;101333.06;5069365;28;20579;-76
2021/03/29 10:37:26;;;;;;;17.55;11.10;;;;;;;15.79;43.68;101331.75;5070088;28;20044;-73
2021/03/29 10:39:53;;;;;;;19.30;10.13;;;;;;;15.82;43.66;101331.47;5069162;28;20083;-74
2021/03/29 10:42:21;;;;;;;14.40;8.95;;;;;;;15.80;43.19;101325.44;5067930;28;20043;-75
2021/03/29 10:44:48;;;;;;;13.65;8.15;;;;;;;15.72;43.08;101327.81;5064455;28;20067;-73
2021/03/29 10:47:15;;;;;;;15.13;7.68;;;;;;;15.61;42.88;101335.75;5062031;28;20082;-72
2021/03/29 10:49:41;;;;;;;15.48;8.75;;;;;;;15.60;42.98;101323.44;5064991;28;20055;-73
2021/03/29 10:52:09;;;;;;;18.10;12.18;;;;;;;15.75;42.78;101324.94;5067295;28;20040;-72
2021/03/29 10:54:37;;;;;;;17.95;11.43;;;;;;;15.98;42.49;101325.81;5057455;28;20442;-74
2021/03/29 10:57:04;;;;;;;18.67;9.95;;;;;;;16.12;42.36;101321.22;5063529;28;20047;-73
2021/03/29 10:59:30;;;;;;;16.15;8.05;;;;;;;16.20;41.82;101327.63;5073094;28;20047;-75
2021/03/29 11:01:57;;;;;;;19.08;9.20;;;;;;;16.31;41.71;101325.94;5066587;28;20090;-73
2021/03/29 11:04:24;;;;;;;19.25;10.70;;;;;;;16.45;41.53;101317.69;5069938;28;20127;-74
2021/03/29 11:06:50;;;;;;;12.13;8.20;;;;;;;16.50;41.63;101323.50;5061293;28;20044;-73
2021/03/29 11:09:17;;;;;;;14.77;8.50;;;;;;;16.53;41.44;101323.25;5059938;28;20040;-74
2021/03/29 11:11:44;;;;;;;15.02;9.15;;;;;;;16.56;41.47;101322.97;5070113;28;20050;-75
2021/03/29 11:14:11;;;;;;;13.40;9.35;;;;;;;16.49;41.41;101318.28;5074409;28;20051;-72
2021/03/29 11:16:37;;;;;;;17.00;9.52;;;;;;;16.48;41.77;101325.44;5069167;28;20060;-76
2021/03/29 11:19:04;;;;;;;14.85;10.20;;;;;;;16.51;41.50;101314.53;5071401;28;20051;-76
2021/03/29 11:21:32;;;;;;;17.52;11.45;;;;;;;16.33;41.73;101308.00;5080809;28;20048;-74
2021/03/29 11:23:58;;;;;;;16.00;8.55;;;;;;;16.51;41.52;101311.00;5077920;28;20052;-76
2021/03/29 11:26:26;;;;;;;15.75;7.43;;;;;;;16.70;41.30;101313.03;5073010;28;20551;-76
2021/03/29 11:28:54;;;;;;;12.52;7.20;;;;;;;16.83;41.12;101313.75;5075268;28;20653;-75